Time;durP1;ratioP1;P1;durP2;ratioP2;P2;SDS_P1;SDS_P2;PMS_P1;PMS_P2;Temp;Humidity;BMP_temperature;BMP_pressure;BME280_temperature;BME280_humidity;BME280_pressure;Samples;Min_cycle;Max_cycle;Signal;HPM_P1;HPM_P2
2021/11/19 00:00:38;;;;;;;18.40;10.23;;;4.60;94.60;;;;;;5094584;28;20413;-76
2021/11/19 00:03:05;;;;;;;23.40;11.50;;;4.50;94.60;;;;;;5090982;28;20435;-75
2021/11/19 00:05:31;;;;;;;26.73;10.80;;;4.50;94.70;;;;;;5087194;28;20433;-74
2021/11/19 00:07:57;;;;;;;25.50;10.47;;;4.50;94.80;;;;;;5086622;28;20456;-76
2021/11/19 00:10:24;;;;;;;26.80;11.37;;;4.50;94.80;;;;;;5088263;28;20207;-76
2021/11/19 00:12:52;;;;;;;22.47;11.50;;;4.50;94.90;;;;;;5089508;28;20423;-76
2021/11/19 00:15:18;;;;;;;22.60;10.60;;;4.50;94.80;;;;;;5087259;28;20512;-76
2021/11/19 00:17:44;;;;;;;24.03;11.40;;;4.50;94.80;;;;;;5088018;28;20967;-74
2021/11/19 00:20:14;;;;;;;27.30;12.20;;;4.40;94.70;;;;;;5089900;28;20512;-74
2021/11/19 00:22:41;;;;;;;19.00;10.47;;;4.40;94.90;;;;;;5089570;28;20970;-76
2021/11/19 00:25:08;;;;;;;16.77;10.07;;;4.40;95.00;;;;;;5088558;28;20417;-76
2021/11/19 00:27:34;;;;;;;21.03;12.87;;;4.30;95.00;;;;;;5098936;28;20445;-75
2021/11/19 00:30:05;;;;;;;21.93;10.27;;;4.30;95.10;;;;;;5099947;28;20449;-76
2021/11/19 00:32:31;;;;;;;21.93;11.37;;;4.20;95.20;;;;;;5093458;28;20437;-76
2021/11/19 00:34:56;;;;;;;22.93;10.90;;;4.30;95.40;;;;;;5095711;28;20417;-77
2021/11/19 00:37:22;;;;;;;16.47;9.03;;;4.30;95.40;;;;;;5101224;28;20206;-75
2021/11/19 00:39:48;;;;;;;18.70;8.90;;;4.40;95.40;;;;;;5095019;28;20665;-74
2021/11/19 00:42:14;;;;;;;22.87;10.57;;;4.40;95.20;;;;;;5092720;28;20194;-76
2021/11/19 00:44:40;;;;;;;18.63;10.10;;;4.40;95.10;;;;;;5091997;28;20440;-76
2021/11/19 00:47:07;;;;;;;19.90;10.47;;;4.40;95.10;;;;;;5092754;28;20214;-75
2021/11/19 00:49:36;;;;;;;19.13;9.77;;;4.40;95.10;;;;;;5092234;28;20218;-76
2021/11/19 00:52:04;;;;;;;17.47;9.23;;;4.40;95.00;;;;;;5092231;28;20425;-76
2021/11/19 00:54:30;;;;;;;18.47;9.57;;;4.40;95.00;;;;;;5091367;28;20421;-76
2021/11/19 00:57:03;;;;;;;18.53;8.33;;;4.50;95.10;;;;;;5092354;28;20521;-76
2021/11/19 00:59:33;;;;;;;19.83;8.87;;;4.50;95.10;;;;;;5089528;28;20516;-76
2021/11/19 01:02:09;;;;;;;17.50;8.67;;;4.50;95.10;;;;;;5088545;28;20475;-76
2021/11/19 01:04:35;;;;;;;20.90;9.43;;;4.60;95.10;;;;;;5090315;28;21145;-76
2021/11/19 01:07:02;;;;;;;16.60;9.03;;;4.60;95.10;;;;;;5085102;28;20450;-76
2021/11/19 01:09:32;;;;;;;17.10;9.03;;;4.50;95.10;;;;;;5092265;28;21029;-76
2021/11/19 01:12:00;;;;;;;22.33;10.87;;;4.50;95.00;;;;;;5092356;28;20477;-77
2021/11/19 01:14:31;;;;;;;22.37;9.00;;;4.40;95.00;;;;;;5090738;28;20448;-75
2021/11/19 01:17:00;;;;;;;17.97;8.53;;;4.40;95.10;;;;;;5092429;28;20474;-75
2021/11/19 01:19:35;;;;;;;20.67;9.73;;;4.40;95.30;;;;;;5092340;28;20428;-75
2021/11/19 01:22:23;;;;;;;17.30;8.73;;;4.50;95.20;;;;;;5092279;28;20465;-75
2021/11/19 01:24:50;;;;;;;20.10;10.03;;;4.50;95.20;;;;;;5091331;28;20498;-76
2021/11/19 01:27:16;;;;;;;23.63;9.30;;;4.40;95.00;;;;;;5091816;28;20452;-75
2021/11/19 01:29:42;;;;;;;17.90;9.03;;;4.40;95.20;;;;;;5090541;28;20468;-75
2021/11/19 01:32:12;;;;;;;24.40;9.70;;;4.40;95.20;;;;;;5091917;28;20978;-74
2021/11/19 01:34:38;;;;;;;17.77;9.20;;;4.50;95.30;;;;;;5091373;28;21073;-75
2021/11/19 01:37:07;;;;;;;22.30;10.60;;;4.50;95.30;;;;;;5092126;28;20528;-75
2021/11/19 01:39:34;;;;;;;17.63;9.50;;;4.40;95.00;;;;;;5090661;28;20490;-75
2021/11/19 01:42:12;;;;;;;18.30;8.97;;;4.30;95.10;;;;;;5091844;28;20437;-76
2021/11/19 01:45:00;;;;;;;16.90;8.50;;;4.40;95.20;;;;;;5085994;28;20425;-75
2021/11/19 01:47:28;;;;;;;14.10;8.17;;;4.40;95.00;;;;;;5091992;28;20456;-76
2021/11/19 01:49:54;;;;;;;15.03;8.10;;;4.50;95.00;;;;;;5097745;28;20463;-75
2021/11/19 01:52:41;;;;;;;19.43;9.00;;;4.50;95.00;;;;;;5095190;28;20479;-75
2021/11/19 01:55:15;;;;;;;22.23;10.30;;;4.50;94.90;;;;;;5089834;28;20494;-74
2021/11/19 01:57:46;;;;;;;21.73;9.37;;;4.40;94.90;;;;;;5093638;28;20443;-76
2021/11/19 02:00:12;;;;;;;16.87;9.30;;;4.40;94.80;;;;;;5091710;28;20431;-77
2021/11/19 02:02:41;;;;;;;16.80;8.87;;;4.40;94.60;;;;;;5090047;28;20441;-76
2021/11/19 02:05:22;;;;;;;18.13;9.70;;;4.30;94.50;;;;;;5090194;28;20456;-75
2021/11/19 02:07:57;;;;;;;15.53;7.80;;;4.30;94.50;;;;;;5082349;28;20547;-75
2021/11/19 02:11:04;;;;;;;23.13;9.80;;;4.20;94.60;;;;;;5091445;28;20468;-75
2021/11/19 02:13:45;;;;;;;20.37;10.30;;;4.20;94.80;;;;;;5081180;28;20884;-75
2021/11/19 02:16:19;;;;;;;13.53;8.20;;;4.20;94.90;;;;;;5088557;28;20780;-75
2021/11/19 02:19:15;;;;;;;17.13;8.07;;;4.20;95.00;;;;;;5091353;28;20603;-75
2021/11/19 02:22:07;;;;;;;19.20;9.50;;;4.20;95.10;;;;;;5091316;28;20818;-75
2021/11/19 02:25:11;;;;;;;18.20;8.90;;;4.20;95.10;;;;;;5084521;28;20445;-74
2021/11/19 02:27:45;;;;;;;22.07;9.93;;;4.10;95.00;;;;;;5084299;28;20464;-74
2021/11/19 02:30:27;;;;;;;21.63;9.57;;;4.10;95.00;;;;;;5091156;28;20462;-76
2021/11/19 02:32:59;;;;;;;21.07;10.20;;;4.00;94.80;;;;;;5090965;28;20428;-76
2021/11/19 02:35:58;;;;;;;17.03;9.00;;;3.90;94.70;;;;;;5089929;28;20410;-76
2021/11/19 02:38:32;;;;;;;17.47;10.13;;;3.90;94.90;;;;;;5082747;28;20452;-75
2021/11/19 02:40:59;;;;;;;18.83;9.17;;;3.80;95.10;;;;;;5095173;28;20493;-75
2021/11/19 02:43:48;;;;;;;22.13;9.73;;;3.80;95.40;;;;;;5093372;28;20475;-74
2021/11/19 02:46:18;;;;;;;16.17;8.60;;;3.90;95.60;;;;;;5093735;28;20232;-76
2021/11/19 02:48:44;;;;;;;19.70;9.37;;;3.90;95.60;;;;;;5097639;28;20429;-75
2021/11/19 02:51:11;;;;;;;15.20;9.83;;;3.90;95.70;;;;;;5090886;28;20500;-76
2021/11/19 02:53:37;;;;;;;15.23;8.90;;;3.90;95.90;;;;;;5094377;28;20418;-75
2021/11/19 02:56:05;;;;;;;17.33;9.27;;;4.00;95.90;;;;;;5095870;28;20459;-76
2021/11/19 02:58:39;;;;;;;21.20;9.20;;;4.00;95.80;;;;;;5088403;28;20199;-75
2021/11/19 03:01:29;;;;;;;14.27;8.27;;;4.00;95.70;;;;;;5092463;28;20411;-75
2021/11/19 03:04:04;;;;;;;16.83;9.00;;;4.10;95.50;;;;;;5090212;28;21099;-75
2021/11/19 03:06:32;;;;;;;16.60;9.67;;;4.00;95.50;;;;;;5082042;28;20432;-75
2021/11/19 03:08:58;;;;;;;18.53;10.07;;;4.00;95.50;;;;;;5090247;28;20465;-76
2021/11/19 03:11:23;;;;;;;16.57;8.80;;;4.00;95.60;;;;;;5090300;28;20428;-76
2021/11/19 03:13:50;;;;;;;18.77;9.40;;;4.00;95.80;;;;;;5089749;28;20421;-75
2021/11/19 03:16:16;;;;;;;15.00;8.83;;;4.00;95.80;;;;;;5090082;28;20452;-76
2021/11/19 03:18:42;;;;;;;17.60;8.97;;;4.00;95.80;;;;;;5090129;28;20447;-76
2021/11/19 03:21:18;;;;;;;16.47;8.57;;;4.00;95.60;;;;;;5091743;28;20433;-76
2021/11/19 03:23:45;;;;;;;23.23;10.37;;;4.00;95.30;;;;;;5096123;28;20486;-75
2021/11/19 03:26:12;;;;;;;18.47;9.67;;;3.90;95.00;;;;;;5091520;28;20905;-76
2021/11/19 03:28:38;;;;;;;16.47;8.77;;;3.90;95.00;;;;;;5101974;28;20460;-74
2021/11/19 03:31:07;;;;;;;16.57;9.03;;;3.90;94.90;;;;;;5101006;28;20428;-75
2021/11/19 03:33:36;;;;;;;20.50;9.27;;;3.90;94.80;;;;;;5088133;28;20413;-74
2021/11/19 03:36:04;;;;;;;17.53;10.13;;;3.90;94.80;;;;;;5090900;28;20942;-74
2021/11/19 03:38:32;;;;;;;18.40;9.90;;;3.80;94.80;;;;;;5091638;28;20433;-75
2021/11/19 03:41:00;;;;;;;21.33;10.27;;;3.90;95.00;;;;;;5094444;28;20432;-75
2021/11/19 03:43:31;;;;;;;15.87;8.73;;;3.90;95.10;;;;;;5092015;28;20421;-75
2021/11/19 03:46:02;;;;;;;18.80;8.77;;;3.90;94.90;;;;;;5090255;28;20785;-75
2021/11/19 03:48:28;;;;;;;20.60;10.10;;;3.80;95.00;;;;;;5089288;28;20425;-75
2021/11/19 03:51:25;;;;;;;23.43;10.10;;;3.80;95.30;;;;;;5089243;28;20464;-74
2021/11/19 03:53:51;;;;;;;20.43;9.60;;;3.80;95.50;;;;;;5082741;28;20943;-75
2021/11/19 03:56:18;;;;;;;18.00;9.77;;;3.80;95.70;;;;;;5088776;28;20417;-76
2021/11/19 03:58:44;;;;;;;15.30;8.50;;;3.70;95.80;;;;;;5089503;28;20441;-76
2021/11/19 04:01:33;;;;;;;15.73;8.40;;;3.70;95.90;;;;;;5087642;28;20422;-76
2021/11/19 04:04:01;;;;;;;19.95;8.13;;;3.70;95.90;;;;;;5087246;28;20521;-75
2021/11/19 04:06:28;;;;;;;16.93;9.40;;;3.70;95.90;;;;;;5088783;28;20180;-74
2021/11/19 04:08:53;;;;;;;16.63;9.33;;;3.70;95.90;;;;;;5087774;28;20448;-76
2021/11/19 04:11:21;;;;;;;20.13;9.53;;;3.60;95.80;;;;;;5088848;28;20425;-75
2021/11/19 04:13:48;;;;;;;17.83;9.27;;;3.60;95.90;;;;;;5088029;28;20296;-76
2021/11/19 04:16:18;;;;;;;15.75;8.70;;;3.50;96.10;;;;;;5088888;28;20179;-76
2021/11/19 04:18:44;;;;;;;18.77;8.82;;;3.50;96.30;;;;;;5088914;28;20207;-75
2021/11/19 04:21:12;;;;;;;19.67;10.23;;;3.50;96.50;;;;;;5089081;28;20926;-74
2021/11/19 04:23:39;;;;;;;18.27;10.40;;;3.50;96.60;;;;;;5090218;28;20455;-75
2021/11/19 04:26:07;;;;;;;23.83;10.97;;;3.50;96.60;;;;;;5088535;28;21154;-77
2021/11/19 04:28:33;;;;;;;20.33;10.23;;;3.50;96.70;;;;;;5091095;28;20448;-75
2021/11/19 04:30:59;;;;;;;18.33;10.50;;;3.50;96.70;;;;;;5092907;28;20469;-75
2021/11/19 04:33:26;;;;;;;16.37;9.47;;;3.50;96.60;;;;;;5088080;28;20456;-74
2021/11/19 04:35:53;;;;;;;19.97;9.87;;;3.50;96.50;;;;;;5088559;28;20483;-75
2021/11/19 04:38:20;;;;;;;20.80;9.90;;;3.40;96.50;;;;;;5093327;28;21242;-75
2021/11/19 04:40:47;;;;;;;20.30;10.30;;;3.40;96.50;;;;;;5085715;28;20516;-76
2021/11/19 04:43:13;;;;;;;17.58;10.68;;;3.40;96.50;;;;;;5090126;28;20463;-76
2021/11/19 04:45:40;;;;;;;19.47;9.83;;;3.40;96.60;;;;;;5087531;28;20225;-76
2021/11/19 04:48:06;;;;;;;20.20;10.87;;;3.40;96.60;;;;;;5092838;28;20916;-76
2021/11/19 04:50:37;;;;;;;22.77;12.17;;;3.30;96.60;;;;;;5088364;28;20510;-76
2021/11/19 04:53:05;;;;;;;19.83;10.68;;;3.30;96.70;;;;;;5088266;28;20460;-76
2021/11/19 04:55:32;;;;;;;18.40;10.23;;;3.10;96.60;;;;;;5079493;28;20673;-76
2021/11/19 04:57:58;;;;;;;20.03;10.00;;;3.10;96.70;;;;;;5087055;28;20444;-76
2021/11/19 05:00:36;;;;;;;25.33;11.93;;;3.10;96.50;;;;;;5080795;28;20422;-74
2021/11/19 05:03:03;;;;;;;25.40;11.90;;;3.10;96.40;;;;;;5088309;28;20424;-75
2021/11/19 05:05:29;;;;;;;22.15;10.73;;;3.00;96.50;;;;;;5079825;28;20795;-76
2021/11/19 05:07:55;;;;;;;22.17;10.80;;;3.00;96.50;;;;;;5086393;28;20247;-74
2021/11/19 05:10:21;;;;;;;21.33;9.30;;;3.00;96.70;;;;;;5089553;28;20222;-76
2021/11/19 05:12:51;;;;;;;19.30;10.07;;;3.00;96.70;;;;;;5088637;28;20180;-75
2021/11/19 05:15:17;;;;;;;22.43;10.03;;;3.00;96.80;;;;;;5087763;28;20179;-76
2021/11/19 05:17:43;;;;;;;23.33;11.23;;;3.00;96.90;;;;;;5086561;28;20437;-75
2021/11/19 05:20:11;;;;;;;19.00;10.97;;;3.10;96.90;;;;;;5092636;28;20286;-76
2021/11/19 05:22:38;;;;;;;18.47;11.07;;;3.10;96.90;;;;;;5092941;28;20187;-75
2021/11/19 05:25:06;;;;;;;22.42;10.68;;;3.00;96.80;;;;;;5091645;28;20424;-75
2021/11/19 05:27:32;;;;;;;27.05;11.23;;;3.00;96.80;;;;;;5090733;28;20256;-76
2021/11/19 05:29:58;;;;;;;20.23;10.50;;;3.00;96.90;;;;;;5094744;28;20352;-76
2021/11/19 05:32:24;;;;;;;22.27;10.67;;;3.00;97.00;;;;;;5096573;28;20455;-76
2021/11/19 05:34:50;;;;;;;19.90;10.30;;;3.00;97.00;;;;;;5094996;28;20183;-75
2021/11/19 05:37:16;;;;;;;24.10;11.90;;;3.00;97.10;;;;;;5092525;28;20260;-74
2021/11/19 05:39:42;;;;;;;17.97;9.20;;;3.00;97.10;;;;;;5092042;28;20191;-75
2021/11/19 05:42:08;;;;;;;20.20;11.60;;;2.90;97.10;;;;;;5092145;28;20985;-74
2021/11/19 05:44:39;;;;;;;20.50;11.10;;;2.90;97.10;;;;;;5091110;28;20460;-76
2021/11/19 05:47:05;;;;;;;23.80;11.35;;;2.90;97.20;;;;;;5096914;28;20746;-76
2021/11/19 05:49:31;;;;;;;19.52;10.48;;;3.00;97.20;;;;;;5090104;28;20290;-75
2021/11/19 05:51:59;;;;;;;21.35;11.35;;;3.00;97.10;;;;;;5091766;28;20191;-76
2021/11/19 05:54:27;;;;;;;18.88;11.07;;;2.90;97.00;;;;;;5091380;28;20184;-75
2021/11/19 05:56:54;;;;;;;23.90;12.03;;;2.90;97.10;;;;;;5091756;28;20645;-74
2021/11/19 05:59:20;;;;;;;19.60;11.52;;;2.90;97.00;;;;;;5089725;28;20432;-74
2021/11/19 06:01:46;;;;;;;22.60;11.80;;;2.90;97.10;;;;;;5091042;28;20191;-75
2021/11/19 06:04:13;;;;;;;23.75;12.35;;;2.90;97.10;;;;;;5089249;28;20525;-75
2021/11/19 06:06:39;;;;;;;24.87;11.50;;;2.80;97.10;;;;;;5092166;28;20198;-75
2021/11/19 06:09:06;;;;;;;26.30;12.50;;;2.80;97.20;;;;;;5093847;28;20460;-74
2021/11/19 06:11:48;;;;;;;24.77;13.70;;;2.90;97.30;;;;;;5098681;28;20509;-75
2021/11/19 06:14:19;;;;;;;24.77;10.65;;;2.90;97.30;;;;;;5098822;28;20183;-74
2021/11/19 06:16:52;;;;;;;24.30;12.40;;;2.90;97.20;;;;;;5098890;28;20279;-76
2021/11/19 06:19:21;;;;;;;21.10;11.15;;;3.00;97.20;;;;;;5098598;28;20274;-75
2021/11/19 06:21:59;;;;;;;26.65;12.77;;;3.00;97.20;;;;;;5099180;28;20278;-74
2021/11/19 06:24:37;;;;;;;21.30;9.90;;;3.10;97.10;;;;;;5096635;28;20175;-73
2021/11/19 06:27:04;;;;;;;18.17;10.17;;;3.10;97.00;;;;;;5094406;28;20437;-75
2021/11/19 06:29:30;;;;;;;23.00;12.50;;;3.20;96.90;;;;;;5080264;28;20449;-74
2021/11/19 06:31:58;;;;;;;18.47;10.10;;;3.30;96.90;;;;;;5090780;28;20428;-74
2021/11/19 06:34:24;;;;;;;24.00;12.10;;;3.30;96.80;;;;;;5089614;28;20595;-75
2021/11/19 06:36:51;;;;;;;26.87;12.60;;;3.50;96.80;;;;;;5091149;28;20516;-75
2021/11/19 06:39:17;;;;;;;34.97;13.27;;;3.50;96.50;;;;;;5091309;28;20481;-76
2021/11/19 06:41:44;;;;;;;20.90;11.50;;;3.60;96.30;;;;;;5091160;28;20855;-74
2021/11/19 06:44:10;;;;;;;25.10;13.13;;;3.60;96.30;;;;;;5089010;28;20445;-75
2021/11/19 06:46:37;;;;;;;19.05;10.52;;;3.70;96.30;;;;;;5091556;28;20421;-74
2021/11/19 06:49:04;;;;;;;19.30;11.10;;;3.80;96.30;;;;;;5091100;28;20218;-74
2021/11/19 06:51:31;;;;;;;21.20;11.17;;;3.90;96.20;;;;;;5090796;28;20336;-75
2021/11/19 06:53:58;;;;;;;23.47;11.87;;;3.90;96.10;;;;;;5090757;28;20437;-73
2021/11/19 06:56:24;;;;;;;20.57;11.63;;;4.00;95.90;;;;;;5090813;28;20432;-75
2021/11/19 06:58:51;;;;;;;17.73;9.47;;;4.00;95.60;;;;;;5089720;28;20287;-75
2021/11/19 07:01:20;;;;;;;20.73;10.40;;;4.00;95.50;;;;;;5090569;28;20428;-74
2021/11/19 07:03:47;;;;;;;19.97;10.13;;;4.20;95.40;;;;;;5095388;28;21492;-76
2021/11/19 07:06:14;;;;;;;22.83;11.40;;;4.30;95.20;;;;;;5094623;28;20493;-76
2021/11/19 07:08:40;;;;;;;19.73;9.50;;;4.40;94.60;;;;;;5096982;28;20433;-76
2021/11/19 07:11:15;;;;;;;19.67;11.00;;;4.30;94.10;;;;;;5094714;28;20496;-75
2021/11/19 07:13:41;;;;;;;17.27;10.20;;;4.30;93.80;;;;;;5093689;28;20425;-74
2021/11/19 07:16:07;;;;;;;16.93;9.63;;;4.20;93.60;;;;;;5094974;28;20409;-75
2021/11/19 07:18:33;;;;;;;23.03;11.47;;;4.20;93.50;;;;;;5095049;28;20517;-77
2021/11/19 07:20:59;;;;;;;24.93;11.37;;;4.20;93.80;;;;;;5091883;28;20459;-75
2021/11/19 07:23:25;;;;;;;19.00;10.80;;;4.20;93.90;;;;;;5092030;28;20555;-75
2021/11/19 07:25:51;;;;;;;22.20;11.17;;;4.20;93.90;;;;;;5090243;28;20986;-75
2021/11/19 07:28:17;;;;;;;27.13;12.17;;;4.30;93.90;;;;;;5092766;28;20207;-74
2021/11/19 07:30:53;;;;;;;20.40;11.07;;;4.40;94.10;;;;;;5085931;28;20267;-75
2021/11/19 07:33:21;;;;;;;19.87;11.30;;;4.50;94.10;;;;;;5089668;28;20803;-75
2021/11/19 07:35:48;;;;;;;22.97;11.30;;;4.60;93.80;;;;;;5089091;28;20574;-75
2021/11/19 07:38:15;;;;;;;19.63;10.70;;;4.60;93.50;;;;;;5090314;28;20460;-76
2021/11/19 07:40:43;;;;;;;22.43;11.10;;;4.50;93.00;;;;;;5088135;28;20432;-75
2021/11/19 07:43:10;;;;;;;20.80;11.17;;;4.50;93.20;;;;;;5089386;28;20425;-75
2021/11/19 07:45:38;;;;;;;27.27;15.40;;;4.60;93.00;;;;;;5089106;28;20559;-75
2021/11/19 07:48:07;;;;;;;22.30;10.53;;;4.50;92.80;;;;;;5089501;28;20456;-76
2021/11/19 07:50:34;;;;;;;20.93;11.30;;;4.60;92.90;;;;;;5089157;28;20499;-75
2021/11/19 07:53:00;;;;;;;20.17;11.30;;;4.70;92.90;;;;;;5088926;28;20421;-74
2021/11/19 07:55:26;;;;;;;19.50;11.87;;;4.70;92.90;;;;;;5088450;28;20462;-74
2021/11/19 07:57:53;;;;;;;19.07;10.90;;;4.70;93.00;;;;;;5088232;28;20199;-75
2021/11/19 08:00:22;;;;;;;21.80;12.00;;;4.70;93.00;;;;;;5081953;28;20460;-76
2021/11/19 08:02:48;;;;;;;23.93;11.43;;;4.80;92.90;;;;;;5087653;28;20565;-76
2021/11/19 08:05:15;;;;;;;20.13;10.67;;;4.70;92.90;;;;;;5086987;28;20927;-75
2021/11/19 08:07:41;;;;;;;20.37;10.77;;;4.80;92.90;;;;;;5089471;28;20505;-76
2021/11/19 08:10:07;;;;;;;18.47;10.70;;;4.80;93.10;;;;;;5088377;28;20465;-75
2021/11/19 08:12:35;;;;;;;21.03;10.77;;;5.00;93.10;;;;;;5089907;28;20425;-75
2021/11/19 08:15:01;;;;;;;20.00;10.40;;;5.20;92.70;;;;;;5088958;28;20506;-76
2021/11/19 08:17:29;;;;;;;19.03;10.50;;;5.30;92.30;;;;;;5089918;28;20492;-76
2021/11/19 08:19:56;;;;;;;18.60;10.20;;;5.30;91.80;;;;;;5089163;28;20417;-76
2021/11/19 08:22:22;;;;;;;15.57;9.73;;;5.40;91.70;;;;;;5090124;28;20425;-73
2021/11/19 08:24:49;;;;;;;21.43;10.53;;;5.50;91.40;;;;;;5088009;28;20498;-75
2021/11/19 08:27:23;;;;;;;22.93;11.10;;;5.60;91.20;;;;;;5090746;28;20600;-75
2021/11/19 08:29:53;;;;;;;17.50;10.47;;;5.60;90.80;;;;;;5091844;28;20458;-76
2021/11/19 08:32:20;;;;;;;24.53;11.70;;;5.70;90.70;;;;;;5090543;28;20432;-74
2021/11/19 08:34:48;;;;;;;22.77;11.80;;;5.70;90.60;;;;;;5089880;28;20502;-76
2021/11/19 08:37:15;;;;;;;16.80;10.70;;;5.70;90.60;;;;;;5089100;28;20441;-76
2021/11/19 08:39:41;;;;;;;21.10;11.53;;;5.70;90.60;;;;;;5089979;28;20425;-76
2021/11/19 08:42:09;;;;;;;26.20;11.10;;;5.80;90.60;;;;;;5090251;28;20425;-76
2021/11/19 08:44:40;;;;;;;19.13;10.60;;;6.00;90.30;;;;;;5089032;28;20425;-75
2021/11/19 08:47:10;;;;;;;20.13;10.20;;;6.00;90.10;;;;;;5089351;28;20491;-76
2021/11/19 08:49:36;;;;;;;19.67;11.70;;;6.00;90.00;;;;;;5091808;28;20457;-76
2021/11/19 08:52:08;;;;;;;24.90;12.67;;;6.00;90.10;;;;;;5094716;28;20413;-76
2021/11/19 08:54:35;;;;;;;26.90;11.97;;;6.10;90.10;;;;;;5093446;28;20517;-76
2021/11/19 08:57:05;;;;;;;22.10;10.43;;;6.20;90.00;;;;;;5096242;28;20421;-76
2021/11/19 08:59:33;;;;;;;22.93;11.50;;;6.20;89.70;;;;;;5093186;28;20955;-76
2021/11/19 09:02:00;;;;;;;23.47;12.90;;;6.30;89.90;;;;;;5091878;28;20513;-76
2021/11/19 09:04:27;;;;;;;31.20;13.27;;;6.30;89.60;;;;;;5093674;28;20405;-75
2021/11/19 09:06:55;;;;;;;24.20;12.53;;;6.30;89.60;;;;;;5095821;28;20421;-76
2021/11/19 09:09:21;;;;;;;25.00;13.83;;;6.30;90.00;;;;;;5097952;28;20464;-76
2021/11/19 09:11:49;;;;;;;23.50;13.33;;;6.30;90.10;;;;;;5096102;28;20512;-76
2021/11/19 09:14:16;;;;;;;34.20;13.77;;;6.30;90.20;;;;;;5091655;28;20425;-76
2021/11/19 09:17:04;;;;;;;25.43;13.27;;;6.30;90.20;;;;;;5091669;28;20453;-76
2021/11/19 09:19:47;;;;;;;28.20;14.20;;;6.30;90.20;;;;;;5089193;28;21128;-75
2021/11/19 09:22:13;;;;;;;23.93;14.27;;;6.30;90.20;;;;;;5092861;28;20417;-75
2021/11/19 09:24:39;;;;;;;30.33;14.40;;;6.40;90.10;;;;;;5091135;28;20424;-76
2021/11/19 09:27:17;;;;;;;27.50;13.90;;;6.30;90.00;;;;;;5091453;28;20234;-76
2021/11/19 09:29:48;;;;;;;25.23;13.17;;;6.20;90.60;;;;;;5087835;28;20463;-76
2021/11/19 09:32:16;;;;;;;29.87;12.60;;;6.30;90.80;;;;;;5088465;28;20426;-75
2021/11/19 09:34:45;;;;;;;30.80;13.67;;;6.40;91.50;;;;;;5091957;28;20478;-75
2021/11/19 09:37:13;;;;;;;34.17;15.30;;;6.40;91.40;;;;;;5092461;28;20532;-75
2021/11/19 09:39:42;;;;;;;26.33;13.60;;;6.50;91.30;;;;;;5093062;28;20427;-74
2021/11/19 09:42:26;;;;;;;31.60;14.50;;;6.60;91.10;;;;;;5091999;28;20478;-75
2021/11/19 09:45:29;;;;;;;25.90;13.07;;;6.60;90.70;;;;;;5084073;28;20787;-76
2021/11/19 09:48:13;;;;;;;26.43;12.13;;;6.70;90.80;;;;;;5096522;28;20448;-74
2021/11/19 09:51:06;;;;;;;28.83;13.93;;;6.60;90.90;;;;;;5099208;28;20465;-76
2021/11/19 09:53:55;;;;;;;31.67;13.90;;;6.60;91.20;;;;;;5093678;28;20463;-74
2021/11/19 09:56:37;;;;;;;30.93;13.17;;;6.70;91.30;;;;;;5092432;28;20507;-75
2021/11/19 09:59:24;;;;;;;23.30;12.60;;;6.70;91.10;;;;;;5094820;28;20432;-77
2021/11/19 10:02:21;;;;;;;33.53;14.43;;;6.80;91.00;;;;;;5093443;28;20420;-77
2021/11/19 10:05:12;;;;;;;38.40;14.30;;;6.90;90.70;;;;;;5059098;28;20809;-74
2021/11/19 10:08:14;;;;;;;28.03;13.80;;;6.90;90.50;;;;;;5079179;28;20502;-77
2021/11/19 10:11:03;;;;;;;31.50;14.40;;;6.90;90.30;;;;;;5041230;28;20471;-75
2021/11/19 10:13:48;;;;;;;43.57;18.93;;;6.90;90.50;;;;;;5093310;28;20420;-76
2021/11/19 10:16:28;;;;;;;42.07;15.50;;;7.00;90.50;;;;;;5103922;28;20489;-74
2021/11/19 10:19:06;;;;;;;32.10;16.00;;;7.10;90.00;;;;;;5104325;28;20494;-75
2021/11/19 10:21:39;;;;;;;34.37;14.53;;;7.10;89.90;;;;;;5087015;28;20417;-77
2021/11/19 10:24:30;;;;;;;37.00;14.90;;;7.20;89.70;;;;;;5092581;28;20421;-76
2021/11/19 10:26:56;;;;;;;30.17;13.83;;;7.20;89.30;;;;;;5078806;28;20421;-75
2021/11/19 10:29:27;;;;;;;33.17;14.90;;;7.20;89.00;;;;;;5098393;28;20564;-75
2021/11/19 10:32:00;;;;;;;28.67;15.17;;;7.30;88.70;;;;;;5095840;28;20205;-75
2021/11/19 10:34:44;;;;;;;25.80;14.50;;;7.30;88.60;;;;;;5093866;28;20521;-75
2021/11/19 10:37:44;;;;;;;31.80;14.30;;;7.40;88.60;;;;;;5092788;28;20444;-76
2021/11/19 10:40:22;;;;;;;30.93;14.63;;;7.40;88.40;;;;;;5094777;28;20453;-76
2021/11/19 10:43:12;;;;;;;29.70;15.63;;;7.30;88.60;;;;;;5089292;28;20421;-76
2021/11/19 10:46:18;;;;;;;30.97;15.00;;;7.30;88.70;;;;;;5095100;28;20946;-75
2021/11/19 10:48:52;;;;;;;33.33;14.33;;;7.40;88.70;;;;;;5093465;28;20452;-76
2021/11/19 10:51:36;;;;;;;34.20;13.87;;;7.30;88.90;;;;;;5096843;28;21029;-76
2021/11/19 10:54:36;;;;;;;37.50;16.33;;;7.30;89.00;;;;;;5087591;28;20417;-76
2021/11/19 10:57:18;;;;;;;31.57;15.13;;;7.30;89.20;;;;;;5090599;28;20444;-77
2021/11/19 11:00:13;;;;;;;31.70;16.40;;;7.20;89.30;;;;;;5092947;28;20519;-75
2021/11/19 11:02:58;;;;;;;30.67;15.80;;;7.20;89.30;;;;;;5089553;28;20449;-76
2021/11/19 11:05:41;;;;;;;35.87;15.80;;;7.30;89.60;;;;;;5095971;28;20425;-74
2021/11/19 11:08:07;;;;;;;46.13;17.13;;;7.50;89.50;;;;;;5096622;28;20456;-75
2021/11/19 11:10:39;;;;;;;33.67;16.00;;;7.70;88.40;;;;;;5098240;28;20465;-75
2021/11/19 11:13:35;;;;;;;32.40;15.33;;;7.70;87.40;;;;;;5095734;28;20702;-76
2021/11/19 11:16:09;;;;;;;38.50;16.73;;;7.60;87.40;;;;;;5092022;28;20425;-76
2021/11/19 11:18:55;;;;;;;36.57;16.17;;;7.70;87.60;;;;;;5092684;28;20958;-77
2021/11/19 11:21:41;;;;;;;35.67;17.87;;;7.70;87.30;;;;;;5091633;28;20852;-76
2021/11/19 11:24:17;;;;;;;32.60;15.07;;;7.60;87.30;;;;;;5090485;28;20427;-76
2021/11/19 11:26:45;;;;;;;34.53;17.13;;;7.40;87.80;;;;;;5090207;28;20844;-74
2021/11/19 11:29:17;;;;;;;30.63;17.07;;;7.40;88.40;;;;;;5094327;28;20425;-76
2021/11/19 11:31:54;;;;;;;33.70;17.30;;;7.50;88.30;;;;;;5095759;28;20420;-77
2021/11/19 11:34:30;;;;;;;35.50;16.33;;;7.60;88.00;;;;;;5092168;28;20467;-78
2021/11/19 11:37:17;;;;;;;35.87;17.20;;;7.70;87.60;;;;;;5089635;28;20415;-76
2021/11/19 11:40:03;;;;;;;34.07;16.13;;;7.80;87.30;;;;;;5084921;28;20520;-75
2021/11/19 11:42:38;;;;;;;44.13;17.07;;;7.80;86.90;;;;;;5092364;28;20574;-76
2021/11/19 11:45:30;;;;;;;31.73;15.23;;;7.90;87.00;;;;;;5090434;28;20731;-73
2021/11/19 11:48:24;;;;;;;38.57;16.60;;;8.00;86.80;;;;;;5089159;28;20510;-76
2021/11/19 11:51:20;;;;;;;32.60;15.90;;;8.20;86.20;;;;;;5095112;28;20464;-76
2021/11/19 11:54:10;;;;;;;29.13;14.40;;;8.30;85.70;;;;;;5095434;28;20452;-76
2021/11/19 11:56:43;;;;;;;39.10;16.30;;;8.10;85.70;;;;;;5096587;28;20494;-75
2021/11/19 11:59:38;;;;;;;38.10;14.87;;;7.90;86.50;;;;;;5102003;28;20422;-75
2021/11/19 12:02:23;;;;;;;33.80;15.10;;;7.90;87.10;;;;;;5086216;28;20421;-76
2021/11/19 12:04:54;;;;;;;33.80;16.40;;;7.90;87.60;;;;;;5090268;28;20415;-76
2021/11/19 12:07:30;;;;;;;29.67;13.93;;;8.00;87.30;;;;;;5080785;28;20864;-76
2021/11/19 12:10:02;;;;;;;32.53;13.57;;;8.10;87.30;;;;;;5090295;28;20472;-76
2021/11/19 12:12:28;;;;;;;25.97;13.03;;;8.20;86.80;;;;;;5089688;28;20538;-76
2021/11/19 12:15:15;;;;;;;37.03;13.90;;;8.20;86.80;;;;;;5089429;28;20441;-75
2021/11/19 12:18:03;;;;;;;33.47;15.10;;;8.30;86.50;;;;;;5089867;28;20519;-75
2021/11/19 12:21:13;;;;;;;29.80;12.97;;;8.10;86.80;;;;;;5090142;28;20476;-76
2021/11/19 12:24:08;;;;;;;30.63;13.60;;;8.10;87.10;;;;;;5064836;28;20975;-76
2021/11/19 12:26:53;;;;;;;29.70;13.27;;;8.20;87.10;;;;;;5043261;28;20453;-75
2021/11/19 12:29:42;;;;;;;27.37;13.30;;;8.00;87.70;;;;;;5090505;28;20797;-76
2021/11/19 12:32:10;;;;;;;26.83;12.37;;;7.80;88.00;;;;;;5090280;28;20425;-77
2021/11/19 12:34:47;;;;;;;27.10;12.70;;;7.70;88.70;;;;;;5090307;28;20450;-76
2021/11/19 12:37:44;;;;;;;34.20;13.53;;;7.80;88.70;;;;;;5090099;28;20963;-76
2021/11/19 12:40:22;;;;;;;30.90;13.70;;;7.80;88.60;;;;;;5090462;28;20417;-76
2021/11/19 12:43:06;;;;;;;25.53;11.30;;;7.70;88.70;;;;;;5090200;28;20524;-75
2021/11/19 12:45:36;;;;;;;24.60;10.50;;;7.70;89.00;;;;;;5089905;28;20424;-76
2021/11/19 12:48:23;;;;;;;26.67;11.93;;;7.80;88.90;;;;;;5090709;28;20540;-75
2021/11/19 12:51:18;;;;;;;26.73;10.80;;;7.90;88.60;;;;;;5084444;28;20460;-75
2021/11/19 12:54:04;;;;;;;20.17;10.83;;;8.00;88.40;;;;;;5089799;28;20949;-76
2021/11/19 12:56:53;;;;;;;31.10;13.50;;;8.10;87.60;;;;;;5084931;28;20448;-76
2021/11/19 12:59:21;;;;;;;27.33;11.57;;;8.10;87.60;;;;;;5089788;28;20428;-76
2021/11/19 13:02:41;;;;;;;23.37;12.07;;;7.90;87.70;;;;;;5088959;28;20417;-75
2021/11/19 13:05:07;;;;;;;25.20;11.30;;;7.90;88.60;;;;;;5026652;28;20427;-75
2021/11/19 13:07:36;;;;;;;21.57;10.83;;;8.00;88.40;;;;;;5034502;28;20874;-77
2021/11/19 13:10:25;;;;;;;26.90;11.07;;;8.10;87.80;;;;;;5032346;28;20283;-77